createdAt,value
2024-04-24T00:01:16.671Z,96132.13
2024-04-24T00:03:18.790Z,96126.16
2024-04-24T00:05:20.645Z,96134.94
2024-04-24T00:07:22.353Z,96125.56
2024-04-24T00:09:24.069Z,96128.34
2024-04-24T00:11:28.469Z,96131.53
2024-04-24T00:13:30.288Z,96124.09
2024-04-24T00:15:31.992Z,96114.28
2024-04-24T00:17:33.831Z,96119.53
2024-04-24T00:19:35.656Z,96116.53
2024-04-24T00:21:37.351Z,96118.91
2024-04-24T00:23:39.002Z,96117.09
2024-04-24T00:25:40.703Z,96120.59
2024-04-24T00:27:45.000Z,96119.63
2024-04-24T00:29:46.709Z,96117.34
2024-04-24T00:31:48.374Z,96112.22
2024-04-24T00:33:50.199Z,96119.38
2024-04-24T00:35:51.907Z,96127.41
2024-04-24T00:37:53.596Z,96116.50
2024-04-24T00:39:55.288Z,96115.25
2024-04-24T00:41:56.968Z,96111.09
2024-04-24T00:44:01.301Z,96103.66
2024-04-24T00:46:03.877Z,96113.34
2024-04-24T00:48:07.606Z,96104.50
2024-04-24T00:50:10.663Z,96106.69
2024-04-24T00:52:12.452Z,96107.19
2024-04-24T00:54:14.994Z,96102.75
2024-04-24T00:56:16.987Z,96083.78
2024-04-24T00:58:19.526Z,96091.66
2024-04-24T01:00:23.948Z,96096.22
2024-04-24T01:02:26.276Z,96088.75
2024-04-24T01:04:28.098Z,96096.09
2024-04-24T01:06:29.896Z,96071.38
2024-04-24T01:08:31.933Z,96085.44
2024-04-24T01:10:33.588Z,96083.25
2024-04-24T01:12:35.329Z,96085.97
2024-04-24T01:14:37.101Z,96047.63
2024-04-24T01:16:42.921Z,96082.09
2024-04-24T01:18:49.927Z,96081.78
2024-04-24T01:20:53.965Z,96073.44
2024-04-24T01:23:05.669Z,96079.47
2024-04-24T01:25:13.922Z,96066.53
2024-04-24T01:27:18.274Z,96073.53
2024-04-24T01:29:20.116Z,96066.91
2024-04-24T01:31:21.861Z,96066.03
2024-04-24T01:33:23.594Z,96053.31
2024-04-24T01:35:25.329Z,96051.66
2024-04-24T01:37:27.135Z,96050.53
2024-04-24T01:39:28.815Z,96057.59
2024-04-24T01:41:30.487Z,96049.50
2024-04-24T01:43:34.785Z,96056.59
2024-04-24T01:45:36.453Z,96050.19
2024-04-24T01:47:38.260Z,96044.16
2024-04-24T01:49:40.019Z,96055.72
2024-04-24T01:51:41.669Z,96060.09
2024-04-24T01:53:43.432Z,96042.84
2024-04-24T01:55:45.295Z,96045.78
2024-04-24T01:57:47.128Z,96040.91
2024-04-24T01:59:51.528Z,96045.50
2024-04-24T02:01:53.232Z,96016.72
2024-04-24T02:03:54.929Z,96039.84
2024-04-24T02:05:56.609Z,96040.38
2024-04-24T02:07:58.351Z,96027.56
2024-04-24T02:10:00.166Z,96020.94
2024-04-24T02:12:10.007Z,96032.28
2024-04-24T02:14:17.564Z,96036.41
2024-04-24T02:16:21.918Z,96025.53
2024-04-24T02:18:23.635Z,96031.00
2024-04-24T02:20:25.496Z,96029.22
2024-04-24T02:22:27.228Z,96040.47
2024-04-24T02:24:28.888Z,96041.50
2024-04-24T02:26:30.560Z,96030.69
2024-04-24T02:28:32.276Z,96023.44
2024-04-24T02:30:33.953Z,96033.66
2024-04-24T02:32:38.332Z,96035.25
2024-04-24T02:34:40.061Z,96039.38
2024-04-24T02:36:41.755Z,96031.63
2024-04-24T02:38:43.432Z,96025.72
2024-04-24T02:40:45.221Z,96031.63
2024-04-24T02:42:46.945Z,96026.69
2024-04-24T02:44:48.620Z,96016.53
2024-04-24T02:46:50.300Z,96015.41
2024-04-24T02:48:54.854Z,96008.94
2024-04-24T02:50:56.622Z,95998.44
2024-04-24T02:52:58.443Z,96006.72
2024-04-24T02:55:00.178Z,96013.41
2024-04-24T02:57:01.941Z,96010.00
2024-04-24T02:59:03.676Z,96015.03
2024-04-24T03:01:12.267Z,96007.75
2024-04-24T03:03:14.063Z,96004.56
2024-04-24T03:05:18.571Z,96006.22
2024-04-24T03:07:20.326Z,95990.03
2024-04-24T03:09:21.972Z,96005.72
2024-04-24T03:11:23.748Z,95994.81
2024-04-24T03:13:25.495Z,95997.59
2024-04-24T03:15:27.167Z,95997.16
2024-04-24T03:17:28.978Z,96001.50
2024-04-24T03:19:30.711Z,95995.59
2024-04-24T03:21:35.037Z,95979.09
2024-04-24T03:23:38.034Z,95989.50
2024-04-24T03:25:39.812Z,95987.63
2024-04-24T03:27:41.568Z,95984.72
2024-04-24T03:29:43.231Z,95981.72
2024-04-24T03:31:44.915Z,95973.16
2024-04-24T03:33:46.730Z,95970.53
2024-04-24T03:35:48.427Z,95980.34
2024-04-24T03:37:52.766Z,95973.16
2024-04-24T03:39:54.483Z,95976.16
2024-04-24T03:41:56.180Z,95974.88
2024-04-24T03:43:57.940Z,95975.38
2024-04-24T03:45:59.613Z,95965.56
2024-04-24T03:48:01.380Z,95977.06
2024-04-24T03:50:03.151Z,95956.72
2024-04-24T03:52:05.186Z,95969.47
2024-04-24T03:54:09.505Z,95968.06
2024-04-24T03:56:11.231Z,95968.16
2024-04-24T03:58:12.931Z,95979.81
2024-04-24T04:00:14.985Z,95972.91
2024-04-24T04:02:16.778Z,95978.16
2024-04-24T04:04:18.561Z,95978.16
2024-04-24T04:06:20.301Z,95974.44
2024-04-24T04:08:22.002Z,95974.13
2024-04-24T04:10:26.411Z,95971.41
2024-04-24T04:12:28.073Z,95977.22
2024-04-24T04:14:29.890Z,95967.06
2024-04-24T04:16:31.570Z,95966.44
2024-04-24T04:18:33.324Z,95974.69
2024-04-24T04:20:35.137Z,95959.03
2024-04-24T04:22:39.094Z,95964.50
2024-04-24T04:24:42.026Z,95976.66
2024-04-24T04:26:46.326Z,95962.47
2024-04-24T04:28:48.006Z,95960.91
2024-04-24T04:30:50.082Z,95957.75
2024-04-24T04:32:51.819Z,95958.44
2024-04-24T04:34:53.930Z,95960.75
2024-04-24T04:36:55.663Z,95960.75
2024-04-24T04:38:57.510Z,95962.63
2024-04-24T04:40:59.184Z,95964.66
2024-04-24T04:43:03.746Z,95962.53
2024-04-24T04:45:06.576Z,95970.00
2024-04-24T04:47:08.381Z,95966.91
2024-04-24T04:49:10.171Z,95973.53
2024-04-24T04:51:11.831Z,95968.63
2024-04-24T04:53:13.665Z,95963.38
2024-04-24T04:55:15.374Z,95972.16
2024-04-24T04:57:17.035Z,95964.06
2024-04-24T04:59:21.465Z,95949.28
2024-04-24T05:01:23.167Z,95971.13
2024-04-24T05:03:24.882Z,95962.56
2024-04-24T05:05:26.618Z,95964.44
2024-04-24T05:07:28.547Z,95970.50
2024-04-24T05:09:30.329Z,95956.47
2024-04-24T05:11:32.079Z,95966.31
2024-04-24T05:13:33.812Z,95964.59
2024-04-24T05:15:38.648Z,95966.22
2024-04-24T05:17:40.590Z,95955.13
2024-04-24T05:19:42.455Z,95960.06
2024-04-24T05:21:44.126Z,95958.94
2024-04-24T05:23:45.779Z,95945.25
2024-04-24T05:25:47.449Z,95944.84
2024-04-24T05:27:49.159Z,95941.25
2024-04-24T05:29:50.848Z,95944.59
2024-04-24T05:31:55.199Z,95936.44
2024-04-24T05:33:57.064Z,95940.81
2024-04-24T05:35:58.837Z,95936.66
2024-04-24T05:38:00.644Z,95939.75
2024-04-24T05:40:02.438Z,95927.38
2024-04-24T05:42:04.224Z,95906.19
2024-04-24T05:44:05.929Z,95935.22
2024-04-24T05:46:07.631Z,95929.81
2024-04-24T05:48:12.036Z,95933.53
2024-04-24T05:50:13.875Z,95928.16
2024-04-24T05:52:15.601Z,95932.91
2024-04-24T05:54:17.335Z,95924.72
2024-04-24T05:56:19.052Z,95921.13
2024-04-24T05:58:20.817Z,95924.44
2024-04-24T06:00:22.495Z,95927.53
2024-04-24T06:02:25.648Z,95900.84
2024-04-24T06:04:30.101Z,95912.19
2024-04-24T06:06:31.837Z,95919.72
2024-04-24T06:08:33.491Z,95904.09
2024-04-24T06:10:37.563Z,95908.75
2024-04-24T06:12:39.201Z,95904.31
2024-04-24T06:14:40.878Z,95906.03
2024-04-24T06:16:44.307Z,95902.59
2024-04-24T06:18:47.737Z,95894.53
2024-04-24T06:20:52.246Z,95901.75
2024-04-24T06:22:53.983Z,95904.41
2024-04-24T06:24:55.713Z,95905.63
2024-04-24T06:26:57.444Z,95900.91
2024-04-24T06:28:59.134Z,95901.56
2024-04-24T06:31:00.843Z,95902.81
2024-04-24T06:33:05.840Z,95900.91
2024-04-24T06:35:07.775Z,95901.56
2024-04-24T06:37:12.207Z,95895.47
2024-04-24T06:39:13.895Z,95898.59
2024-04-24T06:41:15.985Z,95902.56
2024-04-24T06:43:17.747Z,95885.09
2024-04-24T06:45:21.110Z,95893.81
2024-04-24T06:47:22.810Z,95900.59
2024-04-24T06:49:24.591Z,95890.38
2024-04-24T06:51:28.391Z,95901.41
2024-04-24T06:53:36.769Z,95898.78
2024-04-24T06:55:38.495Z,95906.19
2024-04-24T06:57:47.149Z,95900.41
2024-04-24T06:59:48.832Z,95895.97
2024-04-24T07:01:50.949Z,95895.16
2024-04-24T07:03:53.184Z,95903.22
2024-04-24T07:05:55.073Z,95898.94
2024-04-24T07:07:56.814Z,95900.91
2024-04-24T07:10:01.217Z,95897.78
2024-04-24T07:12:03.046Z,95895.97
2024-04-24T07:14:04.890Z,95872.25
2024-04-24T07:16:07.083Z,95887.91
2024-04-24T07:18:08.822Z,95888.72
2024-04-24T07:20:10.766Z,95885.41
2024-04-24T07:22:12.423Z,95878.00
2024-04-24T07:24:14.105Z,95876.19
2024-04-24T07:26:19.147Z,95871.91
2024-04-24T07:28:21.693Z,95880.78
2024-04-24T07:30:23.358Z,95886.25
2024-04-24T07:32:25.096Z,95875.88
2024-04-24T07:34:26.824Z,95874.06
2024-04-24T07:36:28.498Z,95893.00
2024-04-24T07:38:30.185Z,95884.63
2024-04-24T07:40:31.968Z,95878.34
2024-04-24T07:42:36.616Z,95879.00
2024-04-24T07:44:38.271Z,95877.03
2024-04-24T07:46:39.953Z,95877.50
2024-04-24T07:48:41.812Z,95871.56
2024-04-24T07:50:43.599Z,95862.69
2024-04-24T07:52:45.264Z,95865.97
2024-04-24T07:54:46.983Z,95867.94
2024-04-24T07:56:48.688Z,95862.66
2024-04-24T07:58:53.099Z,95866.31
2024-04-24T08:00:54.883Z,95864.00
2024-04-24T08:02:56.645Z,95859.88
2024-04-24T08:04:58.323Z,95868.94
2024-04-24T08:07:00.042Z,95871.56
2024-04-24T08:09:01.705Z,95859.03
2024-04-24T08:11:04.484Z,95865.28
2024-04-24T08:13:06.301Z,95857.50
2024-04-24T08:15:10.698Z,95855.72
2024-04-24T08:17:12.408Z,95848.25
2024-04-24T08:19:14.106Z,95854.69
2024-04-24T08:21:15.752Z,95849.69
2024-04-24T08:23:21.667Z,95845.78
2024-04-24T08:25:25.726Z,95853.56
2024-04-24T08:27:28.452Z,95849.09
2024-04-24T08:29:31.065Z,95845.84
2024-04-24T08:31:36.463Z,95853.25
2024-04-24T08:33:38.367Z,95848.81
2024-04-24T08:35:40.189Z,95854.09
2024-04-24T08:37:41.849Z,95837.13
2024-04-24T08:39:43.486Z,95843.34
2024-04-24T08:41:45.970Z,95846.16
2024-04-24T08:43:49.761Z,95836.75
2024-04-24T08:45:52.812Z,95836.94
2024-04-24T08:47:58.493Z,95836.19
2024-04-24T08:50:02.796Z,95845.72
2024-04-24T08:52:06.466Z,95840.50
2024-04-24T08:54:12.212Z,95832.63
2024-04-24T08:56:17.082Z,95834.59
2024-04-24T08:58:24.451Z,95849.44
2024-04-24T09:00:30.952Z,95844.22
2024-04-24T09:02:34.153Z,95847.03
2024-04-24T09:04:40.546Z,95842.22
2024-04-24T09:06:43.698Z,95830.53
2024-04-24T09:08:47.105Z,95831.38
2024-04-24T09:10:50.015Z,95841.56
2024-04-24T09:12:53.287Z,95834.94
2024-04-24T09:14:54.984Z,95841.81
2024-04-24T09:16:57.705Z,95841.53
2024-04-24T09:18:59.945Z,95825.53
2024-04-24T09:21:05.047Z,95844.50
2024-04-24T09:23:06.963Z,95831.38
2024-04-24T09:25:08.703Z,95835.63
2024-04-24T09:27:10.397Z,95826.13
2024-04-24T09:29:12.281Z,95832.53
2024-04-24T09:31:13.998Z,95831.38
2024-04-24T09:33:16.062Z,95828.41
2024-04-24T09:35:18.071Z,95820.81
2024-04-24T09:37:23.421Z,95823.78
2024-04-24T09:39:25.814Z,95833.66
2024-04-24T09:41:27.623Z,95834.66
2024-04-24T09:43:29.914Z,95828.72
2024-04-24T09:45:32.524Z,95827.41
2024-04-24T09:47:34.318Z,95828.91
2024-04-24T09:49:38.049Z,95817.19
2024-04-24T09:51:39.753Z,95821.50
2024-04-24T09:53:44.110Z,95812.94
2024-04-24T09:55:54.436Z,95819.50
2024-04-24T09:58:00.449Z,95802.03
2024-04-24T10:00:02.666Z,95814.88
2024-04-24T10:02:05.813Z,95808.59
2024-04-24T10:04:08.231Z,95813.50
2024-04-24T10:06:13.259Z,95804.75
2024-04-24T10:08:19.314Z,95815.16
2024-04-24T10:10:33.896Z,95818.81
2024-04-24T10:12:39.164Z,95813.34
2024-04-24T10:14:52.016Z,95818.44
2024-04-24T10:16:56.286Z,95813.63
2024-04-24T10:19:00.640Z,95811.50
2024-04-24T10:21:03.055Z,95817.84
2024-04-24T10:23:06.025Z,95816.84
2024-04-24T10:25:08.825Z,95815.88
2024-04-24T10:27:14.306Z,95810.94
2024-04-24T10:29:19.075Z,95816.22
2024-04-24T10:31:22.337Z,95820.78
2024-04-24T10:33:26.190Z,95802.69
2024-04-24T10:35:28.246Z,95810.88
2024-04-24T10:37:30.176Z,95809.06
2024-04-24T10:39:41.294Z,95804.41
2024-04-24T10:41:44.827Z,95796.88
2024-04-24T10:43:49.788Z,95792.59
2024-04-24T10:45:54.131Z,95805.97
2024-04-24T10:47:57.424Z,95792.63
2024-04-24T10:50:00.061Z,95803.00
2024-04-24T10:52:01.844Z,95812.06
2024-04-24T10:54:13.358Z,95791.50
2024-04-24T10:56:16.742Z,95808.56
2024-04-24T10:58:21.244Z,95795.03
2024-04-24T11:00:30.835Z,95792.53
2024-04-24T11:02:32.696Z,95789.72
2024-04-24T11:04:34.466Z,95790.53
2024-04-24T11:06:36.253Z,95788.38
2024-04-24T11:08:38.002Z,95793.28
2024-04-24T11:10:39.807Z,95789.25
2024-04-24T11:12:42.223Z,95797.34
2024-04-24T11:14:44.221Z,95786.25
2024-04-24T11:16:57.991Z,95783.06
2024-04-24T11:18:59.857Z,95788.69
2024-04-24T11:21:01.608Z,95786.75
2024-04-24T11:23:09.710Z,95786.63
2024-04-24T11:25:12.718Z,95791.84
2024-04-24T11:27:14.458Z,95784.94
2024-04-24T11:29:16.141Z,95781.97
2024-04-24T11:31:17.894Z,95780.63
2024-04-24T11:33:23.565Z,95774.28
2024-04-24T11:35:26.255Z,95776.88
2024-04-24T11:37:28.211Z,95757.88
2024-04-24T11:39:29.890Z,95776.03
2024-04-24T11:41:36.076Z,95760.75
2024-04-24T11:43:37.786Z,95777.03
2024-04-24T11:45:39.502Z,95769.78
2024-04-24T11:47:41.371Z,95772.16
2024-04-24T11:49:50.367Z,95768.41
2024-04-24T11:51:52.272Z,95763.59
2024-04-24T11:53:55.020Z,95763.06
2024-04-24T11:55:56.752Z,95763.06
2024-04-24T11:57:59.539Z,95769.22
2024-04-24T12:00:04.198Z,95769.28
2024-04-24T12:02:05.974Z,95761.72
2024-04-24T12:04:08.212Z,95751.66
2024-04-24T12:06:13.043Z,95759.22
2024-04-24T12:08:14.852Z,95745.38
2024-04-24T12:10:23.200Z,95754.56
2024-04-24T12:12:25.110Z,95738.94
2024-04-24T12:14:29.955Z,95744.19
2024-04-24T12:16:36.457Z,95745.16
2024-04-24T12:18:38.178Z,95743.94
2024-04-24T12:20:40.023Z,95738.66
2024-04-24T12:22:44.428Z,95731.56
2024-04-24T12:24:46.111Z,95746.81
2024-04-24T12:26:47.828Z,95725.09
2024-04-24T12:28:51.946Z,95731.31
2024-04-24T12:30:53.437Z,95728.97
2024-04-24T12:32:55.241Z,95719.47
2024-04-24T12:34:57.089Z,95712.16
2024-04-24T12:36:58.820Z,95715.00
2024-04-24T12:39:03.483Z,95717.66
2024-04-24T12:41:06.195Z,95714.44
2024-04-24T12:43:07.915Z,95709.06
2024-04-24T12:45:09.887Z,95712.78
2024-04-24T12:47:11.666Z,95715.44
2024-04-24T12:49:13.354Z,95711.25
2024-04-24T12:51:15.066Z,95705.03
2024-04-24T12:53:16.776Z,95705.41
2024-04-24T12:55:21.088Z,95691.38
2024-04-24T12:57:22.755Z,95691.44
2024-04-24T12:59:26.390Z,95691.91
2024-04-24T13:01:28.192Z,95697.19
2024-04-24T13:03:30.034Z,95690.91
2024-04-24T13:05:34.182Z,95689.25
2024-04-24T13:07:35.954Z,95697.03
2024-04-24T13:09:37.621Z,95700.19
2024-04-24T13:11:44.990Z,95694.63
2024-04-24T13:13:46.716Z,95699.81
2024-04-24T13:15:48.383Z,95693.19
2024-04-24T13:17:52.995Z,95698.94
2024-04-24T13:19:54.911Z,95701.94
2024-04-24T13:21:56.603Z,95701.03
2024-04-24T13:23:58.295Z,95694.22
2024-04-24T13:26:00.190Z,95707.41
2024-04-24T13:28:05.071Z,95696.16
2024-04-24T13:30:07.506Z,95706.16
2024-04-24T13:32:09.185Z,95706.09
2024-04-24T13:34:10.909Z,95705.91
2024-04-24T13:36:12.573Z,95679.66
2024-04-24T13:38:14.355Z,95699.53
2024-04-24T13:40:16.088Z,95696.53
2024-04-24T13:42:17.739Z,95707.25
2024-04-24T13:44:23.941Z,95717.63
2024-04-24T13:46:25.666Z,95734.03
2024-04-24T13:48:31.282Z,95730.72
2024-04-24T13:50:34.603Z,95732.31
2024-04-24T13:52:36.514Z,95737.25
2024-04-24T13:54:38.192Z,95737.25
2024-04-24T13:56:40.012Z,95722.78
2024-04-24T13:58:41.884Z,95708.28
2024-04-24T14:00:47.633Z,95703.34
2024-04-24T14:02:49.419Z,95716.69
2024-04-24T14:04:51.263Z,95706.47
2024-04-24T14:06:52.959Z,95714.81
2024-04-24T14:08:54.655Z,95717.00
2024-04-24T14:10:56.468Z,95710.84
2024-04-24T14:12:58.397Z,95696.25
2024-04-24T14:15:00.090Z,95695.50
2024-04-24T14:17:04.550Z,95687.09
2024-04-24T14:19:06.290Z,95697.56
2024-04-24T14:21:07.973Z,95683.31
2024-04-24T14:23:09.843Z,95681.56
2024-04-24T14:25:11.585Z,95687.22
2024-04-24T14:27:13.314Z,95674.00
2024-04-24T14:29:15.105Z,95674.06
2024-04-24T14:31:16.867Z,95678.34
2024-04-24T14:33:21.293Z,95668.50
2024-04-24T14:35:23.136Z,95679.94
2024-04-24T14:37:24.839Z,95664.63
2024-04-24T14:39:26.703Z,95657.03
2024-04-24T14:41:28.414Z,95658.28
2024-04-24T14:43:30.152Z,95654.13
2024-04-24T14:45:31.844Z,95648.97
2024-04-24T14:47:33.652Z,95655.84
2024-04-24T14:49:37.987Z,95642.28
2024-04-24T14:51:39.981Z,95638.31
2024-04-24T14:53:41.651Z,95647.28
2024-04-24T14:55:43.313Z,95637.81
2024-04-24T14:57:45.007Z,95640.72
2024-04-24T14:59:46.650Z,95636.47
2024-04-24T15:01:48.429Z,95626.19
2024-04-24T15:03:50.172Z,95639.06
2024-04-24T15:05:54.541Z,95640.78
2024-04-24T15:07:56.201Z,95640.00
2024-04-24T15:09:57.870Z,95648.13
2024-04-24T15:11:59.674Z,95644.75
2024-04-24T15:14:01.541Z,95637.16
2024-04-24T15:16:03.347Z,95640.00
2024-04-24T15:18:05.957Z,95633.34
2024-04-24T15:20:08.426Z,95638.19
2024-04-24T15:22:12.762Z,95629.06
2024-04-24T15:24:14.493Z,95630.88
2024-04-24T15:26:16.337Z,95623.69
2024-04-24T15:28:18.047Z,95608.19
2024-04-24T15:30:19.693Z,95632.28
2024-04-24T15:32:21.426Z,95615.81
2024-04-24T15:34:23.248Z,95629.50
2024-04-24T15:36:25.034Z,95627.47
2024-04-24T15:38:29.451Z,95618.78
2024-04-24T15:40:31.126Z,95633.03
2024-04-24T15:42:32.838Z,95639.75
2024-04-24T15:44:34.562Z,95635.88
2024-04-24T15:46:36.234Z,95633.56
2024-04-24T15:48:38.394Z,95637.50
2024-04-24T15:50:40.118Z,95638.41
2024-04-24T15:52:41.797Z,95634.13
2024-04-24T15:54:46.109Z,95642.50
2024-04-24T15:56:47.826Z,95639.69
2024-04-24T15:58:49.581Z,95657.84
2024-04-24T16:00:51.281Z,95646.81
2024-04-24T16:02:53.007Z,95654.31
2024-04-24T16:04:54.743Z,95653.88
2024-04-24T16:06:56.403Z,95663.94
2024-04-24T16:08:58.064Z,95662.88
2024-04-24T16:11:02.524Z,95669.47
2024-04-24T16:13:04.745Z,95676.03
2024-04-24T16:15:07.186Z,95681.69
2024-04-24T16:17:09.227Z,95695.88
2024-04-24T16:19:11.108Z,95708.84
2024-04-24T16:21:13.008Z,95711.81
2024-04-24T16:23:14.880Z,95701.66
2024-04-24T16:25:16.620Z,95724.91
2024-04-24T16:27:20.912Z,95728.97
2024-04-24T16:29:22.687Z,95731.84
2024-04-24T16:31:24.473Z,95722.63
2024-04-24T16:33:26.227Z,95719.31
2024-04-24T16:35:28.104Z,95717.03
2024-04-24T16:37:30.043Z,95720.38
2024-04-24T16:39:31.780Z,95714.13
2024-04-24T16:41:33.528Z,95713.38
2024-04-24T16:43:37.861Z,95696.63
2024-04-24T16:45:39.561Z,95707.47
2024-04-24T16:47:41.293Z,95699.34
2024-04-24T16:49:42.992Z,95700.13
2024-04-24T16:51:44.810Z,95688.13
2024-04-24T16:53:46.626Z,95682.41
2024-04-24T16:55:50.315Z,95690.28
2024-04-24T16:57:52.128Z,95691.19
2024-04-24T16:59:56.485Z,95679.88
2024-04-24T17:01:58.184Z,95684.88
2024-04-24T17:03:59.914Z,95678.19
2024-04-24T17:06:01.594Z,95670.19
2024-04-24T17:08:03.522Z,95678.00
2024-04-24T17:10:06.295Z,95673.91
2024-04-24T17:12:08.132Z,95666.63
2024-04-24T17:14:10.157Z,95682.09
2024-04-24T17:16:14.505Z,95677.97
2024-04-24T17:18:16.332Z,95673.47
2024-04-24T17:20:18.391Z,95674.19
2024-04-24T17:22:20.319Z,95671.19
2024-04-24T17:24:22.050Z,95666.34
2024-04-24T17:26:30.276Z,95666.06
2024-04-24T17:28:38.258Z,95672.13
2024-04-24T17:30:40.003Z,95659.44
2024-04-24T17:32:44.427Z,95661.44
2024-04-24T17:34:46.161Z,95662.78
2024-04-24T17:36:47.865Z,95677.56
2024-04-24T17:38:49.600Z,95675.91
2024-04-24T17:40:51.277Z,95680.22
2024-04-24T17:42:53.028Z,95686.81
2024-04-24T17:44:54.711Z,95668.69
2024-04-24T17:46:56.527Z,95683.56
2024-04-24T17:49:00.844Z,95693.31
2024-04-24T17:51:02.502Z,95697.84
2024-04-24T17:53:04.588Z,95701.78
2024-04-24T17:55:06.580Z,95698.28
2024-04-24T17:57:08.334Z,95705.31
2024-04-24T17:59:10.034Z,95715.50
2024-04-24T18:01:11.777Z,95715.50
2024-04-24T18:03:13.619Z,95717.84
2024-04-24T18:05:18.893Z,95716.06
2024-04-24T18:07:21.385Z,95715.00
2024-04-24T18:09:23.055Z,95723.06
2024-04-24T18:11:24.997Z,95714.34
2024-04-24T18:13:26.905Z,95710.91
2024-04-24T18:15:28.557Z,95713.38
2024-04-24T18:17:30.351Z,95724.56
2024-04-24T18:19:32.248Z,95723.25
2024-04-24T18:21:39.882Z,95727.03
2024-04-24T18:23:42.857Z,95720.66
2024-04-24T18:25:44.563Z,95718.53
2024-04-24T18:27:46.255Z,95734.63
2024-04-24T18:29:47.936Z,95721.28
2024-04-24T18:31:49.598Z,95722.00
2024-04-24T18:33:51.322Z,95732.25
2024-04-24T18:35:53.225Z,95738.53
2024-04-24T18:37:57.622Z,95734.56
2024-04-24T18:39:59.424Z,95733.75
2024-04-24T18:42:01.224Z,95740.53
2024-04-24T18:44:03.009Z,95747.94
2024-04-24T18:46:04.890Z,95743.84
2024-04-24T18:48:10.886Z,95726.38
2024-04-24T18:50:13.057Z,95754.38
2024-04-24T18:52:14.760Z,95748.78
2024-04-24T18:54:19.054Z,95748.78
2024-04-24T18:56:20.767Z,95753.03
2024-04-24T18:58:22.495Z,95753.06
2024-04-24T19:00:24.380Z,95753.72
2024-04-24T19:02:26.416Z,95746.47
2024-04-24T19:04:28.284Z,95749.09
2024-04-24T19:06:31.898Z,95749.44
2024-04-24T19:08:35.036Z,95752.06
2024-04-24T19:10:39.376Z,95752.41
2024-04-24T19:12:41.098Z,95749.75
2024-04-24T19:14:42.903Z,95757.66
2024-04-24T19:16:44.633Z,95740.53
2024-04-24T19:18:46.335Z,95761.28
2024-04-24T19:20:48.098Z,95760.28
2024-04-24T19:22:49.840Z,95748.94
2024-04-24T19:24:51.504Z,95746.31
2024-04-24T19:26:55.826Z,95755.84
2024-04-24T19:28:57.547Z,95749.75
2024-04-24T19:30:59.277Z,95757.16
2024-04-24T19:33:01.135Z,95754.81
2024-04-24T19:35:03.320Z,95761.44
2024-04-24T19:37:05.446Z,95759.13
2024-04-24T19:39:07.225Z,95753.28
2024-04-24T19:41:12.669Z,95762.06
2024-04-24T19:43:17.136Z,95759.75
2024-04-24T19:45:18.859Z,95756.66
2024-04-24T19:47:20.729Z,95751.88
2024-04-24T19:49:22.464Z,95755.00
2024-04-24T19:51:24.214Z,95758.81
2024-04-24T19:53:26.097Z,95754.00
2024-04-24T19:55:27.840Z,95764.97
2024-04-24T19:57:29.483Z,95763.22
2024-04-24T19:59:33.939Z,95761.34
2024-04-24T20:01:35.737Z,95753.94
2024-04-24T20:03:37.717Z,95727.25
2024-04-24T20:05:39.512Z,95765.13
2024-04-24T20:07:41.220Z,95770.38
2024-04-24T20:09:43.051Z,95770.78
2024-04-24T20:11:44.895Z,95766.09
2024-04-24T20:13:46.651Z,95762.81
2024-04-24T20:15:50.966Z,95766.25
2024-04-24T20:17:52.775Z,95771.38
2024-04-24T20:19:54.516Z,95787.81
2024-04-24T20:21:56.180Z,95772.69
2024-04-24T20:23:57.962Z,95778.59
2024-04-24T20:25:59.623Z,95774.75
2024-04-24T20:28:01.410Z,95778.56
2024-04-24T20:30:03.337Z,95772.97
2024-04-24T20:32:07.967Z,95782.78
2024-04-24T20:34:09.750Z,95752.56
2024-04-24T20:36:13.364Z,95774.13
2024-04-24T20:38:15.040Z,95780.06
2024-04-24T20:40:16.761Z,95784.31
2024-04-24T20:42:18.466Z,95775.94
2024-04-24T20:44:20.230Z,95774.75
2024-04-24T20:46:21.896Z,95781.66
2024-04-24T20:48:26.342Z,95775.91
2024-04-24T20:50:28.214Z,95760.06
2024-04-24T20:52:29.909Z,95778.53
2024-04-24T20:54:31.579Z,95778.88
2024-04-24T20:56:33.334Z,95790.03
2024-04-24T20:58:35.075Z,95783.63
2024-04-24T21:00:36.786Z,95779.47
2024-04-24T21:02:38.551Z,95757.91
2024-04-24T21:04:42.991Z,95772.22
2024-04-24T21:06:44.710Z,95786.41
2024-04-24T21:08:48.938Z,95794.63
2024-04-24T21:10:51.524Z,95769.44
2024-04-24T21:12:53.167Z,95776.16
2024-04-24T21:14:54.871Z,95788.19
2024-04-24T21:16:56.545Z,95781.44
2024-04-24T21:18:58.481Z,95786.72
2024-04-24T21:21:03.164Z,95769.13
2024-04-24T21:23:05.891Z,95775.69
2024-04-24T21:25:07.957Z,95771.91
2024-04-24T21:27:12.126Z,95777.06
2024-04-24T21:29:15.898Z,95775.84
2024-04-24T21:31:17.626Z,95765.81
2024-04-24T21:33:19.432Z,95770.88
2024-04-24T21:35:21.175Z,95776.16
2024-04-24T21:37:25.516Z,95778.41
2024-04-24T21:39:27.171Z,95774.88
2024-04-24T21:41:28.977Z,95752.97
2024-04-24T21:43:30.662Z,95754.28
2024-04-24T21:45:32.335Z,95769.03
2024-04-24T21:47:34.168Z,95775.22
2024-04-24T21:49:35.901Z,95780.78
2024-04-24T21:51:37.749Z,95779.81
2024-04-24T21:53:42.067Z,95777.25
2024-04-24T21:55:43.855Z,95768.72
2024-04-24T21:57:49.403Z,95773.72
2024-04-24T21:59:51.134Z,95760.97
2024-04-24T22:01:52.806Z,95773.56
2024-04-24T22:03:54.586Z,95765.63
2024-04-24T22:05:56.308Z,95784.56
2024-04-24T22:07:57.993Z,95780.66
2024-04-24T22:10:02.477Z,95768.31
2024-04-24T22:12:04.711Z,95751.19
2024-04-24T22:14:06.508Z,95781.47
2024-04-24T22:16:08.263Z,95769.44
2024-04-24T22:18:10.011Z,95783.91
2024-04-24T22:20:11.770Z,95784.91
2024-04-24T22:22:13.469Z,95776.91
2024-04-24T22:24:15.166Z,95786.47
2024-04-24T22:26:19.502Z,95782.81
2024-04-24T22:28:21.364Z,95776.91
2024-04-24T22:30:23.078Z,95782.78
2024-04-24T22:32:26.000Z,95782.56
2024-04-24T22:34:27.730Z,95787.88
2024-04-24T22:36:29.453Z,95790.66
2024-04-24T22:38:31.222Z,95774.53
2024-04-24T22:40:32.949Z,95798.53
2024-04-24T22:42:37.283Z,95761.03
2024-04-24T22:44:38.937Z,95789.19
2024-04-24T22:46:40.594Z,95768.66
2024-04-24T22:48:42.950Z,95781.53
2024-04-24T22:50:44.830Z,95795.69
2024-04-24T22:52:47.211Z,95786.47
2024-04-24T22:55:00.425Z,95794.69
2024-04-24T22:57:02.209Z,95783.84
2024-04-24T22:59:06.498Z,95774.66
2024-04-24T23:01:08.210Z,95774.06
2024-04-24T23:03:10.028Z,95776.94
2024-04-24T23:05:11.959Z,95779.59
2024-04-24T23:07:13.838Z,95774.31
2024-04-24T23:09:15.790Z,95766.44
2024-04-24T23:11:17.505Z,95764.78
2024-04-24T23:13:20.412Z,95783.22
2024-04-24T23:15:24.714Z,95771.03
2024-04-24T23:17:26.440Z,95771.69
2024-04-24T23:19:28.165Z,95774.34
2024-04-24T23:21:29.844Z,95770.13
2024-04-24T23:23:31.575Z,95768.47
2024-04-24T23:25:33.249Z,95770.94
2024-04-24T23:27:34.901Z,95766.19
2024-04-24T23:29:36.765Z,95769.81
2024-04-24T23:31:41.177Z,95763.56
2024-04-24T23:33:42.908Z,95759.59
2024-04-24T23:35:44.601Z,95763.38
2024-04-24T23:37:46.329Z,95773.09
2024-04-24T23:39:48.021Z,95766.09
2024-04-24T23:41:49.716Z,95764.13
2024-04-24T23:43:51.406Z,95766.09
2024-04-24T23:45:53.143Z,95763.88
2024-04-24T23:47:57.495Z,95755.56
2024-04-24T23:49:59.310Z,95763.53
2024-04-24T23:52:01.002Z,95754.66
2024-04-24T23:54:02.778Z,95758.56
2024-04-24T23:56:05.073Z,95762.50
2024-04-24T23:58:06.785Z,95760.84
